Time;durP1;ratioP1;P1;durP2;ratioP2;P2;SDS_P1;SDS_P2;PMS_P1;PMS_P2;Temp;Humidity;BMP_temperature;BMP_pressure;BME280_temperature;BME280_humidity;BME280_pressure;Samples;Min_cycle;Max_cycle;Signal;HPM_P1;HPM_P2
2022/11/11 00:00:30;;;;;;;;;;;;;;;;;;7366404;19;1334;-62
2022/11/11 00:03:17;;;;;;;;;;;;;;;;;;7371263;19;1806;-63
2022/11/11 00:06:04;;;;;;;;;;;;;;;;;;7367087;19;803;-61
2022/11/11 00:08:50;;;;;;;;;;;;;;;;;;7364867;19;1956;-64
2022/11/11 00:11:37;;;;;;;;;;;;;;;;;;7365447;19;1799;-62
2022/11/11 00:14:24;;;;;;;;;;;;;;;;;;7367152;19;712;-62
2022/11/11 00:26:08;;;;;;;;;;;;;;;;;;7371519;19;791;-63
2022/11/11 00:28:54;;;;;;;;;;;;;;;;;;7367899;19;1846;-63
2022/11/11 00:32:21;;;;;;;;;;;;;;;;;;7364657;19;1278;-64
2022/11/11 00:37:47;;;;;;;;;;;;;;;;;;7366165;19;2047;-63
2022/11/11 00:40:34;;;;;;;;;;;;;;;;;;7368702;19;1845;-61
2022/11/11 00:43:20;;;;;;;;;;;;;;;;;;7366927;19;813;-63
2022/11/11 00:52:05;;;;;;;;;;;;;;;;;;7367732;19;1341;-60
2022/11/11 00:54:52;;;;;;;;;;;;;;;;;;7365147;19;785;-62
2022/11/11 00:57:39;;;;;;;;;;;;;;;;;;7365696;19;1825;-62
2022/11/11 01:00:26;;;;;;;;;;;;;;;;;;7366108;19;1323;-63
2022/11/11 01:03:13;;;;;;;;;;;;;;;;;;7370556;19;787;-59
2022/11/11 01:05:59;;;;;;;;;;;;;;;;;;7365612;19;787;-59
2022/11/11 01:08:46;;;;;;;;;;;;;;;;;;7366113;19;1835;-63
2022/11/11 01:11:33;;;;;;;;;;;;;;;;;;7366760;19;1773;-63
2022/11/11 01:14:20;;;;;;;;;;;;;;;;;;7365796;19;748;-64
2022/11/11 01:17:08;;;;;;;;;;;;;;;;;;7365064;19;767;-59
2022/11/11 01:19:54;;;;;;;;;;;;;;;;;;7368190;19;793;-61
2022/11/11 01:22:41;;;;;;;;;;;;;;;;;;7364943;19;731;-62
2022/11/11 01:25:28;;;;;;;;;;;;;;;;;;7364890;19;761;-62
2022/11/11 01:28:15;;;;;;;;;;;;;;;;;;7366785;19;2139;-63
2022/11/11 01:31:02;;;;;;;;;;;;;;;;;;7370701;19;1322;-62
2022/11/11 01:33:49;;;;;;;;;;;;;;;;;;7370911;19;686;-63
2022/11/11 01:36:35;;;;;;;;;;;;;;;;;;7374497;19;1700;-63
2022/11/11 01:39:22;;;;;;;;;;;;;;;;;;7373053;19;1844;-59
2022/11/11 01:42:09;;;;;;;;;;;;;;;;;;7369739;19;1357;-62
2022/11/11 01:44:56;;;;;;;;;;;;;;;;;;7371429;19;699;-60
2022/11/11 01:50:41;;;;;;;;;;;;;;;;;;7374360;19;1361;-62
2022/11/11 01:53:28;;;;;;;;;;;;;;;;;;7370782;19;776;-61
2022/11/11 01:56:15;;;;;;;;;;;;;;;;;;7371408;19;770;-63
2022/11/11 01:59:02;;;;;;;;;;;;;;;;;;7372006;19;1814;-62
2022/11/11 02:01:49;;;;;;;;;;;;;;;;;;7369158;19;1357;-61
2022/11/11 02:07:35;;;;;;;;;;;;;;;;;;7374237;19;1614;-63
2022/11/11 02:10:22;;;;;;;;;;;;;;;;;;7367763;19;1833;-63
2022/11/11 02:16:07;;;;;;;;;;;;;;;;;;7374679;19;777;-63
2022/11/11 02:18:54;;;;;;;;;;;;;;;;;;7376588;19;1709;-64
2022/11/11 02:21:41;;;;;;;;;;;;;;;;;;7374916;19;1849;-62
2022/11/11 02:24:28;;;;;;;;;;;;;;;;;;7374597;19;691;-63
2022/11/11 02:27:15;;;;;;;;;;;;;;;;;;7374489;19;681;-61
2022/11/11 02:30:01;;;;;;;;;;;;;;;;;;7377172;19;1841;-60
2022/11/11 02:32:48;;;;;;;;;;;;;;;;;;7375404;19;1793;-64
2022/11/11 02:35:35;;;;;;;;;;;;;;;;;;7374132;19;622;-63
2022/11/11 02:38:22;;;;;;;;;;;;;;;;;;7372879;19;1532;-63
2022/11/11 02:44:14;;;;;;;;;;;;;;;;;;7368670;19;926;-62
2022/11/11 02:47:00;;;;;;;;;;;;;;;;;;7370546;19;795;-61
2022/11/11 02:49:47;;;;;;;;;;;;;;;;;;7372107;19;1883;-65
2022/11/11 02:52:34;;;;;;;;;;;;;;;;;;7369818;19;708;-64
2022/11/11 02:55:21;;;;;;;;;;;;;;;;;;7369275;19;719;-65
2022/11/11 02:58:08;;;;;;;;;;;;;;;;;;7370265;19;1824;-64
2022/11/11 03:00:55;;;;;;;;;;;;;;;;;;7368792;19;1337;-64
2022/11/11 03:03:42;;;;;;;;;;;;;;;;;;7369381;19;732;-64
2022/11/11 03:06:28;;;;;;;;;;;;;;;;;;7370753;19;2290;-63
2022/11/11 03:09:15;;;;;;;;;;;;;;;;;;7371122;19;1854;-65
2022/11/11 03:12:02;;;;;;;;;;;;;;;;;;7366894;19;1287;-64
2022/11/11 03:14:49;;;;;;;;;;;;;;;;;;7369321;19;770;-64
2022/11/11 03:17:39;;;;;;;;;;;;;;;;;;7369238;19;1805;-66
2022/11/11 03:23:25;;;;;;;;;;;;;;;;;;7368842;19;963;-63
2022/11/11 03:26:12;;;;;;;;;;;;;;;;;;7368768;19;688;-62
2022/11/11 03:28:58;;;;;;;;;;;;;;;;;;7370419;19;1843;-63
2022/11/11 03:31:45;;;;;;;;;;;;;;;;;;7366785;19;1391;-63
2022/11/11 03:34:32;;;;;;;;;;;;;;;;;;7369099;19;824;-63
2022/11/11 03:40:18;;;;;;;;;;;;;;;;;;7372934;19;1395;-64
2022/11/11 03:43:05;;;;;;;;;;;;;;;;;;7368201;19;779;-63
2022/11/11 03:45:52;;;;;;;;;;;;;;;;;;7369094;19;699;-63
2022/11/11 03:48:39;;;;;;;;;;;;;;;;;;7369492;19;1841;-63
2022/11/11 03:51:26;;;;;;;;;;;;;;;;;;7365342;19;1302;-62
2022/11/11 03:54:12;;;;;;;;;;;;;;;;;;7368939;19;706;-64
2022/11/11 03:57:29;;;;;;;;;;;;;;;;;;7368196;19;769;-64
2022/11/11 04:00:06;;;;;;;;;;;;;;;;;;7372608;19;1341;-63
2022/11/11 04:12:03;;;;;;;;;;;;;;;;;;7365044;19;1390;-65
2022/11/11 04:17:49;;;;;;;;;;;;;;;;;;7367070;19;1622;-64
2022/11/11 04:23:34;;;;;;;;;;;;;;;;;;7366983;19;715;-62
2022/11/11 04:26:19;;;;;;;;;;;;;;;;;;7367147;19;711;-65
2022/11/11 04:35:04;;;;;;;;;;;;;;;;;;7370565;19;1586;-64
2022/11/11 04:37:50;;;;;;;;;;;;;;;;;;7367261;19;1443;-64
2022/11/11 04:46:38;;;;;;;;;;;;;;;;;;7366470;19;1173;-65
2022/11/11 04:49:25;;;;;;;;;;;;;;;;;;7367150;19;1813;-61
2022/11/11 04:58:10;;;;;;;;;;;;;;;;;;7366273;19;1675;-65
2022/11/11 05:00:57;;;;;;;;;;;;;;;;;;7365483;19;1329;-65
2022/11/11 05:03:41;;;;;;;;;;;;;;;;;;7369423;19;725;-65
2022/11/11 05:09:28;;;;;;;;;;;;;;;;;;7372266;19;1862;-62
2022/11/11 05:12:14;;;;;;;;;;;;;;;;;;7370295;19;1432;-64
2022/11/11 05:27:04;;;;;;;;;;;;;;;;;;7371765;19;1428;-63
2022/11/11 05:29:51;;;;;;;;;;;;;;;;;;7374058;19;1850;-63
2022/11/11 05:32:37;;;;;;;;;;;;;;;;;;7371492;19;698;-63
2022/11/11 05:35:24;;;;;;;;;;;;;;;;;;7371217;19;718;-62
2022/11/11 05:38:23;;;;;;;;;;;;;;;;;;7371719;19;1830;-63
2022/11/11 05:41:10;;;;;;;;;;;;;;;;;;7370399;19;1298;-63
2022/11/11 05:43:57;;;;;;;;;;;;;;;;;;7375492;19;1641;-62
2022/11/11 05:46:44;;;;;;;;;;;;;;;;;;7371937;19;696;-63
2022/11/11 05:49:31;;;;;;;;;;;;;;;;;;7372829;19;1849;-60
2022/11/11 05:52:18;;;;;;;;;;;;;;;;;;7368875;19;1349;-62
2022/11/11 05:55:04;;;;;;;;;;;;;;;;;;7370901;19;736;-62
2022/11/11 05:57:51;;;;;;;;;;;;;;;;;;7370313;19;765;-61
2022/11/11 06:00:38;;;;;;;;;;;;;;;;;;7374985;19;1307;-63
2022/11/11 06:03:25;;;;;;;;;;;;;;;;;;7371579;19;732;-63
2022/11/11 06:06:11;;;;;;;;;;;;;;;;;;7371413;19;707;-64
2022/11/11 06:08:58;;;;;;;;;;;;;;;;;;7371988;19;1857;-63
2022/11/11 06:11:45;;;;;;;;;;;;;;;;;;7369252;19;1302;-62
2022/11/11 06:14:32;;;;;;;;;;;;;;;;;;7369716;19;759;-63
2022/11/11 06:17:19;;;;;;;;;;;;;;;;;;7370682;19;829;-63
2022/11/11 06:20:06;;;;;;;;;;;;;;;;;;7375310;19;1537;-61
2022/11/11 06:22:59;;;;;;;;;;;;;;;;;;7374358;19;1529;-62
2022/11/11 06:28:45;;;;;;;;;;;;;;;;;;7374242;19;801;-64
2022/11/11 06:31:32;;;;;;;;;;;;;;;;;;7368975;19;1391;-60
2022/11/11 06:34:18;;;;;;;;;;;;;;;;;;7369792;19;757;-61
2022/11/11 06:37:05;;;;;;;;;;;;;;;;;;7374320;19;1765;-64
2022/11/11 06:39:52;;;;;;;;;;;;;;;;;;7374796;19;1428;-60
2022/11/11 06:42:39;;;;;;;;;;;;;;;;;;7373023;19;736;-60
2022/11/11 06:45:25;;;;;;;;;;;;;;;;;;7372641;19;783;-64
2022/11/11 06:48:12;;;;;;;;;;;;;;;;;;7375040;19;1660;-63
2022/11/11 06:50:59;;;;;;;;;;;;;;;;;;7368206;19;1857;-63
2022/11/11 06:53:46;;;;;;;;;;;;;;;;;;7369799;19;725;-63
2022/11/11 06:56:33;;;;;;;;;;;;;;;;;;7370901;19;1771;-63
2022/11/11 06:59:20;;;;;;;;;;;;;;;;;;7369857;19;754;-64
2022/11/11 07:02:06;;;;;;;;;;;;;;;;;;7367794;19;1290;-62
2022/11/11 07:04:53;;;;;;;;;;;;;;;;;;7370586;19;733;-63
2022/11/11 07:07:40;;;;;;;;;;;;;;;;;;7372005;19;1710;-65
2022/11/11 07:10:27;;;;;;;;;;;;;;;;;;7370155;19;1834;-63
2022/11/11 07:13:14;;;;;;;;;;;;;;;;;;7369722;19;743;-63
2022/11/11 07:16:01;;;;;;;;;;;;;;;;;;7369771;19;744;-63
2022/11/11 07:18:47;;;;;;;;;;;;;;;;;;7369557;19;824;-63
2022/11/11 07:21:34;;;;;;;;;;;;;;;;;;7368290;19;1282;-64
2022/11/11 07:24:21;;;;;;;;;;;;;;;;;;7369978;19;567;-63
2022/11/11 07:27:08;;;;;;;;;;;;;;;;;;7367354;19;713;-61
2022/11/11 07:29:55;;;;;;;;;;;;;;;;;;7368254;19;1838;-63
2022/11/11 07:32:41;;;;;;;;;;;;;;;;;;7369973;19;695;-63
2022/11/11 07:35:28;;;;;;;;;;;;;;;;;;7368872;19;776;-63
2022/11/11 07:38:15;;;;;;;;;;;;;;;;;;7368983;19;564;-63
2022/11/11 07:41:02;;;;;;;;;;;;;;;;;;7368275;19;1283;-65
2022/11/11 07:43:48;;;;;;;;;;;;;;;;;;7371349;19;653;-63
2022/11/11 07:46:35;;;;;;;;;;;;;;;;;;7372420;19;684;-62
2022/11/11 07:49:22;;;;;;;;;;;;;;;;;;7370989;19;1834;-62
2022/11/11 07:52:09;;;;;;;;;;;;;;;;;;7369119;19;1318;-62
2022/11/11 07:54:56;;;;;;;;;;;;;;;;;;7371718;19;711;-64
2022/11/11 07:57:43;;;;;;;;;;;;;;;;;;7372815;19;1768;-63
2022/11/11 08:00:29;;;;;;;;;;;;;;;;;;7368475;19;1342;-63
2022/11/11 08:03:16;;;;;;;;;;;;;;;;;;7369807;19;773;-63
2022/11/11 08:06:03;;;;;;;;;;;;;;;;;;7369264;19;703;-60
2022/11/11 08:08:50;;;;;;;;;;;;;;;;;;7372443;19;1574;-62
2022/11/11 08:14:36;;;;;;;;;;;;;;;;;;7367445;19;722;-63
2022/11/11 08:17:23;;;;;;;;;;;;;;;;;;7369724;19;1814;-62
2022/11/11 08:20:09;;;;;;;;;;;;;;;;;;7367665;19;1299;-64
2022/11/11 08:22:58;;;;;;;;;;;;;;;;;;7367823;19;843;-61
2022/11/11 08:25:45;;;;;;;;;;;;;;;;;;7367974;19;720;-61
2022/11/11 08:28:33;;;;;;;;;;;;;;;;;;7370652;19;1693;-64
2022/11/11 08:31:19;;;;;;;;;;;;;;;;;;7368297;19;1861;-61
2022/11/11 08:34:06;;;;;;;;;;;;;;;;;;7367928;19;689;-63
2022/11/11 08:36:53;;;;;;;;;;;;;;;;;;7367747;19;1559;-62
2022/11/11 08:39:40;;;;;;;;;;;;;;;;;;7366457;19;769;-61
2022/11/11 08:42:27;;;;;;;;;;;;;;;;;;7364384;19;1365;-63
2022/11/11 08:45:13;;;;;;;;;;;;;;;;;;7367228;19;761;-63
2022/11/11 08:48:00;;;;;;;;;;;;;;;;;;7369707;19;1681;-64
2022/11/11 08:50:47;;;;;;;;;;;;;;;;;;7365373;19;1833;-63
2022/11/11 08:53:34;;;;;;;;;;;;;;;;;;7367037;19;739;-63
2022/11/11 08:56:21;;;;;;;;;;;;;;;;;;7368029;19;783;-63
2022/11/11 08:59:08;;;;;;;;;;;;;;;;;;7371180;19;664;-63
2022/11/11 09:01:55;;;;;;;;;;;;;;;;;;7364760;19;1322;-64
2022/11/11 09:04:42;;;;;;;;;;;;;;;;;;7367488;19;760;-63
2022/11/11 09:07:29;;;;;;;;;;;;;;;;;;7368704;19;1846;-62
2022/11/11 09:10:16;;;;;;;;;;;;;;;;;;7365402;19;1865;-64
2022/11/11 09:13:03;;;;;;;;;;;;;;;;;;7365782;19;688;-63
2022/11/11 09:15:50;;;;;;;;;;;;;;;;;;7366178;19;707;-64
2022/11/11 09:18:36;;;;;;;;;;;;;;;;;;7369876;19;1687;-63
2022/11/11 09:21:23;;;;;;;;;;;;;;;;;;7364514;19;1310;-63
2022/11/11 09:24:10;;;;;;;;;;;;;;;;;;7371421;19;1591;-63
2022/11/11 09:26:57;;;;;;;;;;;;;;;;;;7367043;19;1532;-66
2022/11/11 09:29:43;;;;;;;;;;;;;;;;;;7369373;19;1510;-62
2022/11/11 09:32:30;;;;;;;;;;;;;;;;;;7363370;19;1333;-62
2022/11/11 09:35:17;;;;;;;;;;;;;;;;;;7366001;19;779;-64
2022/11/11 09:38:04;;;;;;;;;;;;;;;;;;7368315;19;1805;-64
2022/11/11 09:40:50;;;;;;;;;;;;;;;;;;7369309;19;1819;-66
2022/11/11 09:43:37;;;;;;;;;;;;;;;;;;7366341;19;769;-65
2022/11/11 09:46:24;;;;;;;;;;;;;;;;;;7370137;19;2081;-63
2022/11/11 09:49:11;;;;;;;;;;;;;;;;;;7371576;19;801;-64
2022/11/11 09:51:58;;;;;;;;;;;;;;;;;;7370673;19;1849;-64
2022/11/11 09:54:45;;;;;;;;;;;;;;;;;;7372894;19;789;-65
2022/11/11 09:57:31;;;;;;;;;;;;;;;;;;7373585;19;2041;-66
2022/11/11 10:00:18;;;;;;;;;;;;;;;;;;7372315;19;1389;-63
2022/11/11 10:03:05;;;;;;;;;;;;;;;;;;7372222;19;778;-65
2022/11/11 10:05:52;;;;;;;;;;;;;;;;;;7372459;19;833;-66
2022/11/11 10:08:39;;;;;;;;;;;;;;;;;;7375097;19;1763;-66
2022/11/11 10:11:25;;;;;;;;;;;;;;;;;;7369662;19;1834;-67
2022/11/11 10:14:12;;;;;;;;;;;;;;;;;;7372064;19;770;-63
2022/11/11 10:16:59;;;;;;;;;;;;;;;;;;7372631;19;1424;-65
2022/11/11 10:19:46;;;;;;;;;;;;;;;;;;7373178;19;1747;-64
2022/11/11 10:22:33;;;;;;;;;;;;;;;;;;7371755;19;731;-64
2022/11/11 10:25:19;;;;;;;;;;;;;;;;;;7371788;19;806;-66
2022/11/11 10:28:06;;;;;;;;;;;;;;;;;;7371868;19;2110;-64
2022/11/11 10:30:53;;;;;;;;;;;;;;;;;;7370712;19;1846;-65
2022/11/11 10:33:40;;;;;;;;;;;;;;;;;;7371503;19;723;-62
2022/11/11 10:36:27;;;;;;;;;;;;;;;;;;7371946;19;732;-63
2022/11/11 10:39:14;;;;;;;;;;;;;;;;;;7374286;19;1851;-65
2022/11/11 10:42:01;;;;;;;;;;;;;;;;;;7368757;19;1849;-66
2022/11/11 10:44:47;;;;;;;;;;;;;;;;;;7371650;19;908;-63
2022/11/11 10:47:34;;;;;;;;;;;;;;;;;;7371952;19;2071;-64
2022/11/11 10:50:21;;;;;;;;;;;;;;;;;;7372757;19;1838;-62
2022/11/11 10:53:08;;;;;;;;;;;;;;;;;;7373535;19;714;-61
2022/11/11 10:55:55;;;;;;;;;;;;;;;;;;7374553;19;810;-62
2022/11/11 10:58:42;;;;;;;;;;;;;;;;;;7373866;19;2020;-63
2022/11/11 11:01:28;;;;;;;;;;;;;;;;;;7370903;19;1401;-64
2022/11/11 11:04:15;;;;;;;;;;;;;;;;;;7371247;19;734;-66
2022/11/11 11:07:02;;;;;;;;;;;;;;;;;;7371133;19;814;-65
2022/11/11 11:09:49;;;;;;;;;;;;;;;;;;7374797;19;783;-65
2022/11/11 11:12:35;;;;;;;;;;;;;;;;;;7372218;19;1863;-65
2022/11/11 11:15:22;;;;;;;;;;;;;;;;;;7369922;19;786;-64
2022/11/11 11:18:09;;;;;;;;;;;;;;;;;;7371157;19;1820;-65
2022/11/11 11:20:56;;;;;;;;;;;;;;;;;;7373023;19;1872;-65
2022/11/11 11:23:43;;;;;;;;;;;;;;;;;;7374405;19;818;-65
2022/11/11 11:26:30;;;;;;;;;;;;;;;;;;7370063;19;826;-62
2022/11/11 11:29:17;;;;;;;;;;;;;;;;;;7369683;19;787;-65
2022/11/11 11:32:03;;;;;;;;;;;;;;;;;;7369192;19;1869;-65
2022/11/11 11:34:50;;;;;;;;;;;;;;;;;;7369500;19;795;-64
2022/11/11 11:37:37;;;;;;;;;;;;;;;;;;7369600;19;751;-66
2022/11/11 11:40:24;;;;;;;;;;;;;;;;;;7373236;19;1659;-66
2022/11/11 11:43:11;;;;;;;;;;;;;;;;;;7369945;19;730;-65
2022/11/11 11:45:58;;;;;;;;;;;;;;;;;;7370266;19;818;-66
2022/11/11 11:48:44;;;;;;;;;;;;;;;;;;7368730;19;1824;-64
2022/11/11 11:51:31;;;;;;;;;;;;;;;;;;7372402;19;1891;-64
2022/11/11 11:54:18;;;;;;;;;;;;;;;;;;7368873;19;710;-64
2022/11/11 11:57:05;;;;;;;;;;;;;;;;;;7369613;19;720;-64
2022/11/11 11:59:54;;;;;;;;;;;;;;;;;;7365956;19;1162;-61
2022/11/11 12:02:41;;;;;;;;;;;;;;;;;;7372560;19;938;-66
2022/11/11 12:05:27;;;;;;;;;;;;;;;;;;7369221;19;805;-65
2022/11/11 12:08:14;;;;;;;;;;;;;;;;;;7370090;19;2058;-65
2022/11/11 12:11:01;;;;;;;;;;;;;;;;;;7366972;19;1834;-64
2022/11/11 12:13:48;;;;;;;;;;;;;;;;;;7367359;19;836;-66
2022/11/11 12:16:35;;;;;;;;;;;;;;;;;;7368677;19;774;-64
2022/11/11 12:19:22;;;;;;;;;;;;;;;;;;7372380;19;1747;-66
2022/11/11 12:22:09;;;;;;;;;;;;;;;;;;7365883;19;1313;-66
2022/11/11 12:24:55;;;;;;;;;;;;;;;;;;7368466;19;786;-65
2022/11/11 12:27:42;;;;;;;;;;;;;;;;;;7367690;19;762;-65
2022/11/11 12:30:30;;;;;;;;;;;;;;;;;;7367046;19;1276;-67
2022/11/11 12:33:16;;;;;;;;;;;;;;;;;;7368258;19;994;-66
2022/11/11 12:36:03;;;;;;;;;;;;;;;;;;7368053;19;774;-66
2022/11/11 12:38:50;;;;;;;;;;;;;;;;;;7366738;19;786;-63
2022/11/11 12:41:37;;;;;;;;;;;;;;;;;;7366067;19;1325;-65
2022/11/11 12:44:24;;;;;;;;;;;;;;;;;;7366683;19;793;-64
2022/11/11 12:47:11;;;;;;;;;;;;;;;;;;7368096;19;2022;-64
2022/11/11 12:49:58;;;;;;;;;;;;;;;;;;7370852;19;1602;-65
2022/11/11 12:52:45;;;;;;;;;;;;;;;;;;7364143;19;1838;-64
2022/11/11 12:55:31;;;;;;;;;;;;;;;;;;7367302;19;711;-65
2022/11/11 12:58:18;;;;;;;;;;;;;;;;;;7371013;19;1818;-64
2022/11/11 13:01:05;;;;;;;;;;;;;;;;;;7365578;19;1294;-61
2022/11/11 13:03:51;;;;;;;;;;;;;;;;;;7366188;19;775;-62
2022/11/11 13:06:38;;;;;;;;;;;;;;;;;;7366768;19;785;-63
2022/11/11 13:09:25;;;;;;;;;;;;;;;;;;7366548;19;1825;-62
2022/11/11 13:12:12;;;;;;;;;;;;;;;;;;7366503;19;1852;-63
2022/11/11 13:14:59;;;;;;;;;;;;;;;;;;7371074;19;1625;-64
2022/11/11 13:17:45;;;;;;;;;;;;;;;;;;7365904;19;729;-64
2022/11/11 13:20:32;;;;;;;;;;;;;;;;;;7365149;19;1338;-65
2022/11/11 13:23:19;;;;;;;;;;;;;;;;;;7367037;19;2023;-62
2022/11/11 13:26:06;;;;;;;;;;;;;;;;;;7373008;19;782;-63
2022/11/11 13:28:53;;;;;;;;;;;;;;;;;;7372071;19;769;-63
2022/11/11 13:31:40;;;;;;;;;;;;;;;;;;7371459;19;1833;-64
2022/11/11 13:34:26;;;;;;;;;;;;;;;;;;7372836;19;703;-66
2022/11/11 13:37:13;;;;;;;;;;;;;;;;;;7372492;19;712;-66
2022/11/11 13:40:00;;;;;;;;;;;;;;;;;;7374540;19;1801;-62
2022/11/11 13:42:47;;;;;;;;;;;;;;;;;;7371410;19;755;-66
2022/11/11 13:45:34;;;;;;;;;;;;;;;;;;7372113;19;720;-64
2022/11/11 13:48:21;;;;;;;;;;;;;;;;;;7370991;19;775;-64
2022/11/11 13:51:07;;;;;;;;;;;;;;;;;;7370805;19;1846;-65
2022/11/11 13:53:54;;;;;;;;;;;;;;;;;;7371957;19;728;-65
2022/11/11 13:56:41;;;;;;;;;;;;;;;;;;7375291;19;1828;-64
2022/11/11 13:59:28;;;;;;;;;;;;;;;;;;7371373;19;767;-66
2022/11/11 14:02:15;;;;;;;;;;;;;;;;;;7370219;19;1333;-66
2022/11/11 14:05:02;;;;;;;;;;;;;;;;;;7374995;19;1843;-66
2022/11/11 14:07:48;;;;;;;;;;;;;;;;;;7370446;19;811;-66
2022/11/11 14:10:35;;;;;;;;;;;;;;;;;;7373963;19;1585;-65
2022/11/11 14:13:22;;;;;;;;;;;;;;;;;;7368837;19;1826;-69
2022/11/11 14:16:09;;;;;;;;;;;;;;;;;;7371115;19;810;-64
2022/11/11 14:18:56;;;;;;;;;;;;;;;;;;7370857;19;843;-67
2022/11/11 14:21:42;;;;;;;;;;;;;;;;;;7368884;19;1330;-64
2022/11/11 14:24:29;;;;;;;;;;;;;;;;;;7375750;19;730;-65
2022/11/11 14:27:16;;;;;;;;;;;;;;;;;;7374657;19;1835;-64
2022/11/11 14:30:03;;;;;;;;;;;;;;;;;;7370999;19;736;-67
2022/11/11 14:32:50;;;;;;;;;;;;;;;;;;7368709;19;1856;-65
2022/11/11 14:35:36;;;;;;;;;;;;;;;;;;7369590;19;761;-65
2022/11/11 14:38:23;;;;;;;;;;;;;;;;;;7370211;19;889;-64
2022/11/11 14:41:10;;;;;;;;;;;;;;;;;;7369817;19;1799;-67
2022/11/11 14:43:57;;;;;;;;;;;;;;;;;;7374637;19;1621;-67
2022/11/11 14:46:43;;;;;;;;;;;;;;;;;;7370470;19;781;-62
2022/11/11 14:49:30;;;;;;;;;;;;;;;;;;7369806;19;719;-67
2022/11/11 14:52:17;;;;;;;;;;;;;;;;;;7372298;19;1841;-65
2022/11/11 14:55:05;;;;;;;;;;;;;;;;;;7369996;19;770;-66
2022/11/11 14:57:51;;;;;;;;;;;;;;;;;;7370156;19;1536;-65
2022/11/11 15:00:38;;;;;;;;;;;;;;;;;;7368725;19;1326;-64
2022/11/11 15:03:25;;;;;;;;;;;;;;;;;;7369324;19;861;-64
2022/11/11 15:06:12;;;;;;;;;;;;;;;;;;7370968;19;699;-62
2022/11/11 15:08:59;;;;;;;;;;;;;;;;;;7369552;19;892;-63
2022/11/11 15:11:45;;;;;;;;;;;;;;;;;;7372431;19;1842;-65
2022/11/11 15:14:32;;;;;;;;;;;;;;;;;;7380236;19;1787;-65
2022/11/11 15:17:19;;;;;;;;;;;;;;;;;;7379296;19;867;-65
2022/11/11 15:20:06;;;;;;;;;;;;;;;;;;7378794;19;816;-64
2022/11/11 15:22:53;;;;;;;;;;;;;;;;;;7378016;19;708;-62
2022/11/11 15:25:40;;;;;;;;;;;;;;;;;;7375574;19;772;-63
2022/11/11 15:28:27;;;;;;;;;;;;;;;;;;7375971;19;720;-63
2022/11/11 15:31:15;;;;;;;;;;;;;;;;;;7375475;19;1819;-65
2022/11/11 15:34:02;;;;;;;;;;;;;;;;;;7371368;19;774;-66
2022/11/11 15:36:49;;;;;;;;;;;;;;;;;;7372208;19;673;-64
2022/11/11 15:39:35;;;;;;;;;;;;;;;;;;7369981;19;727;-65
2022/11/11 15:42:22;;;;;;;;;;;;;;;;;;7367067;19;1395;-64
2022/11/11 15:45:09;;;;;;;;;;;;;;;;;;7373895;19;1862;-65
2022/11/11 15:47:56;;;;;;;;;;;;;;;;;;7366900;19;845;-62
2022/11/11 15:50:43;;;;;;;;;;;;;;;;;;7368572;19;1789;-62
2022/11/11 15:53:30;;;;;;;;;;;;;;;;;;7370345;19;1841;-63
2022/11/11 15:56:17;;;;;;;;;;;;;;;;;;7369683;19;780;-63
2022/11/11 15:59:04;;;;;;;;;;;;;;;;;;7373086;19;1700;-61
2022/11/11 16:01:50;;;;;;;;;;;;;;;;;;7366717;19;1318;-60
2022/11/11 16:04:37;;;;;;;;;;;;;;;;;;7368613;19;821;-62
2022/11/11 16:07:24;;;;;;;;;;;;;;;;;;7371121;19;2133;-63
2022/11/11 16:10:11;;;;;;;;;;;;;;;;;;7368963;19;1338;-64
2022/11/11 16:12:57;;;;;;;;;;;;;;;;;;7370914;19;1849;-64
2022/11/11 16:15:44;;;;;;;;;;;;;;;;;;7372731;19;1583;-63
2022/11/11 16:18:31;;;;;;;;;;;;;;;;;;7367973;19;1797;-63
2022/11/11 16:21:18;;;;;;;;;;;;;;;;;;7367431;19;1341;-64
2022/11/11 16:24:05;;;;;;;;;;;;;;;;;;7368244;19;792;-63
2022/11/11 16:26:52;;;;;;;;;;;;;;;;;;7368907;19;772;-65
2022/11/11 16:29:38;;;;;;;;;;;;;;;;;;7366795;19;693;-64
2022/11/11 16:32:25;;;;;;;;;;;;;;;;;;7369441;19;1841;-63
2022/11/11 16:35:12;;;;;;;;;;;;;;;;;;7367631;19;793;-62
2022/11/11 16:38:00;;;;;;;;;;;;;;;;;;7366230;19;784;-64
2022/11/11 16:40:47;;;;;;;;;;;;;;;;;;7366482;19;1211;-64
2022/11/11 16:43:33;;;;;;;;;;;;;;;;;;7367409;19;833;-65
2022/11/11 16:46:20;;;;;;;;;;;;;;;;;;7367353;19;735;-64
2022/11/11 16:49:07;;;;;;;;;;;;;;;;;;7365929;19;791;-64
2022/11/11 16:51:54;;;;;;;;;;;;;;;;;;7364980;19;1920;-65
2022/11/11 16:54:41;;;;;;;;;;;;;;;;;;7366842;19;784;-68
2022/11/11 16:57:27;;;;;;;;;;;;;;;;;;7367101;19;766;-64
2022/11/11 17:00:14;;;;;;;;;;;;;;;;;;7381121;19;1405;-59
2022/11/11 17:03:01;;;;;;;;;;;;;;;;;;7380350;19;803;-64
2022/11/11 17:05:47;;;;;;;;;;;;;;;;;;7380733;19;701;-64
2022/11/11 17:08:34;;;;;;;;;;;;;;;;;;7383538;19;1860;-63
2022/11/11 17:11:21;;;;;;;;;;;;;;;;;;7378980;19;1307;-65
2022/11/11 17:14:08;;;;;;;;;;;;;;;;;;7377966;19;1855;-64
2022/11/11 17:16:55;;;;;;;;;;;;;;;;;;7380761;19;720;-65
2022/11/11 17:19:41;;;;;;;;;;;;;;;;;;7379799;19;813;-64
2022/11/11 17:22:28;;;;;;;;;;;;;;;;;;7377842;19;1317;-64
2022/11/11 17:25:15;;;;;;;;;;;;;;;;;;7381062;19;692;-64
2022/11/11 17:28:02;;;;;;;;;;;;;;;;;;7379807;19;842;-63
2022/11/11 17:30:49;;;;;;;;;;;;;;;;;;7379015;19;1326;-65
2022/11/11 17:33:36;;;;;;;;;;;;;;;;;;7379153;19;1841;-65
2022/11/11 17:36:23;;;;;;;;;;;;;;;;;;7383503;19;1664;-65
2022/11/11 17:39:09;;;;;;;;;;;;;;;;;;7378966;19;813;-64
2022/11/11 17:41:56;;;;;;;;;;;;;;;;;;7378006;19;1839;-62
2022/11/11 17:44:43;;;;;;;;;;;;;;;;;;7380273;19;1571;-62
2022/11/11 17:47:30;;;;;;;;;;;;;;;;;;7379204;19;760;-64
2022/11/11 17:50:17;;;;;;;;;;;;;;;;;;7379622;19;1728;-64
2022/11/11 17:53:04;;;;;;;;;;;;;;;;;;7381505;19;1853;-63
2022/11/11 17:55:51;;;;;;;;;;;;;;;;;;7382090;19;1817;-64
2022/11/11 17:58:37;;;;;;;;;;;;;;;;;;7380845;19;1783;-62
2022/11/11 18:01:24;;;;;;;;;;;;;;;;;;7377061;19;1335;-62
2022/11/11 18:04:11;;;;;;;;;;;;;;;;;;7379076;19;731;-64
2022/11/11 18:06:58;;;;;;;;;;;;;;;;;;7379347;19;722;-63
2022/11/11 18:09:45;;;;;;;;;;;;;;;;;;7373841;19;745;-60
2022/11/11 18:12:31;;;;;;;;;;;;;;;;;;7369445;19;1854;-62
2022/11/11 18:15:18;;;;;;;;;;;;;;;;;;7371478;19;806;-63
2022/11/11 18:18:05;;;;;;;;;;;;;;;;;;7374939;19;728;-65
2022/11/11 18:20:52;;;;;;;;;;;;;;;;;;7370114;19;1326;-63
2022/11/11 18:23:39;;;;;;;;;;;;;;;;;;7371284;19;758;-64
2022/11/11 18:26:25;;;;;;;;;;;;;;;;;;7372328;19;802;-63
2022/11/11 18:29:12;;;;;;;;;;;;;;;;;;7371171;19;719;-60
2022/11/11 18:31:59;;;;;;;;;;;;;;;;;;7369575;19;1381;-64
2022/11/11 18:34:45;;;;;;;;;;;;;;;;;;7371435;19;727;-70
2022/11/11 18:37:33;;;;;;;;;;;;;;;;;;7374320;19;1716;-64
2022/11/11 18:40:19;;;;;;;;;;;;;;;;;;7375632;19;1411;-65
2022/11/11 18:43:06;;;;;;;;;;;;;;;;;;7373105;19;1885;-64
2022/11/11 18:45:53;;;;;;;;;;;;;;;;;;7373675;19;1752;-65
2022/11/11 18:48:40;;;;;;;;;;;;;;;;;;7370018;19;715;-62
2022/11/11 18:51:27;;;;;;;;;;;;;;;;;;7369781;19;2020;-65
2022/11/11 18:54:14;;;;;;;;;;;;;;;;;;7368882;19;1849;-64
2022/11/11 18:57:01;;;;;;;;;;;;;;;;;;7374187;19;2012;-65
2022/11/11 18:59:48;;;;;;;;;;;;;;;;;;7371790;19;1806;-64
2022/11/11 19:02:35;;;;;;;;;;;;;;;;;;7370110;19;2035;-64
2022/11/11 19:05:22;;;;;;;;;;;;;;;;;;7374537;19;1860;-66
2022/11/11 19:08:08;;;;;;;;;;;;;;;;;;7369691;19;732;-64
2022/11/11 19:10:55;;;;;;;;;;;;;;;;;;7373161;19;1610;-64
2022/11/11 19:13:42;;;;;;;;;;;;;;;;;;7369851;19;2031;-66
2022/11/11 19:16:28;;;;;;;;;;;;;;;;;;7370876;19;1491;-65
2022/11/11 19:19:16;;;;;;;;;;;;;;;;;;7369789;19;630;-60
2022/11/11 19:22:03;;;;;;;;;;;;;;;;;;7366293;19;1587;-64
2022/11/11 19:24:50;;;;;;;;;;;;;;;;;;7373940;19;1756;-62
2022/11/11 19:27:37;;;;;;;;;;;;;;;;;;7370558;19;1637;-62
2022/11/11 19:30:24;;;;;;;;;;;;;;;;;;7372930;19;1814;-59
2022/11/11 19:33:11;;;;;;;;;;;;;;;;;;7372966;19;1847;-65
2022/11/11 19:35:57;;;;;;;;;;;;;;;;;;7373461;19;2072;-61
2022/11/11 19:38:44;;;;;;;;;;;;;;;;;;7375337;19;770;-63
2022/11/11 19:41:31;;;;;;;;;;;;;;;;;;7372182;19;1820;-66
2022/11/11 19:44:18;;;;;;;;;;;;;;;;;;7374240;19;2029;-65
2022/11/11 19:47:05;;;;;;;;;;;;;;;;;;7369695;19;2029;-67
2022/11/11 19:49:52;;;;;;;;;;;;;;;;;;7369657;19;741;-60
2022/11/11 19:52:39;;;;;;;;;;;;;;;;;;7373501;19;1815;-62
2022/11/11 19:55:26;;;;;;;;;;;;;;;;;;7373446;19;1885;-63
2022/11/11 19:58:13;;;;;;;;;;;;;;;;;;7370684;19;2054;-60
2022/11/11 20:00:59;;;;;;;;;;;;;;;;;;7371125;19;1664;-64
2022/11/11 20:03:46;;;;;;;;;;;;;;;;;;7370163;19;1811;-61
2022/11/11 20:06:33;;;;;;;;;;;;;;;;;;7369751;19;1892;-64
2022/11/11 20:09:20;;;;;;;;;;;;;;;;;;7370265;19;1881;-64
2022/11/11 20:12:07;;;;;;;;;;;;;;;;;;7369685;19;1601;-63
2022/11/11 20:14:53;;;;;;;;;;;;;;;;;;7367097;19;1857;-64
2022/11/11 20:17:40;;;;;;;;;;;;;;;;;;7367922;19;792;-64
2022/11/11 20:20:27;;;;;;;;;;;;;;;;;;7367156;19;1291;-64
2022/11/11 20:23:13;;;;;;;;;;;;;;;;;;7367720;19;754;-63
2022/11/11 20:26:00;;;;;;;;;;;;;;;;;;7368451;19;1612;-65
2022/11/11 20:28:47;;;;;;;;;;;;;;;;;;7366222;19;774;-62
2022/11/11 20:31:34;;;;;;;;;;;;;;;;;;7369484;19;1837;-64
2022/11/11 20:34:20;;;;;;;;;;;;;;;;;;7364068;19;1850;-63
2022/11/11 20:37:07;;;;;;;;;;;;;;;;;;7372289;19;1911;-64
2022/11/11 20:39:54;;;;;;;;;;;;;;;;;;7370683;19;1637;-64
2022/11/11 20:42:41;;;;;;;;;;;;;;;;;;7369280;19;1840;-63
2022/11/11 20:45:28;;;;;;;;;;;;;;;;;;7366831;19;700;-63
2022/11/11 20:48:14;;;;;;;;;;;;;;;;;;7369668;19;1791;-65
2022/11/11 20:51:01;;;;;;;;;;;;;;;;;;7367017;19;1841;-63
2022/11/11 20:53:48;;;;;;;;;;;;;;;;;;7368779;19;2115;-60
2022/11/11 20:56:35;;;;;;;;;;;;;;;;;;7370110;19;1641;-64